Time;durP1;ratioP1;P1;durP2;ratioP2;P2;SDS_P1;SDS_P2;PMS_P1;PMS_P2;Temp;Humidity;BMP_temperature;BMP_pressure;BME280_temperature;BME280_humidity;BME280_pressure;Samples;Min_cycle;Max_cycle;Signal;HPM_P1;HPM_P2
2022/10/09 17:50:23;;;;;;;3.13;1.80;;;14.00;74.50;;;;;;2116137;27;20366;-89
2022/10/09 17:51:35;;;;;;;5.43;1.40;;;14.20;73.50;;;;;;2098054;28;20795;-92
2022/10/09 17:52:35;;;;;;;5.57;1.55;;;14.30;74.40;;;;;;2091261;28;20159;-90
2022/10/09 17:53:36;;;;;;;3.27;1.40;;;14.30;73.90;;;;;;2089335;28;20025;-87
2022/10/09 17:54:40;;;;;;;7.50;1.37;;;14.30;73.60;;;;;;2088468;28;20033;-89
2022/10/09 17:55:40;;;;;;;3.43;1.27;;;14.20;73.50;;;;;;2090532;28;20021;-86
2022/10/09 17:56:42;;;;;;;3.53;1.30;;;14.20;73.30;;;;;;2097831;28;20254;-88
2022/10/09 17:57:43;;;;;;;5.28;1.40;;;14.20;73.40;;;;;;2089820;28;20116;-92
2022/10/09 17:58:46;;;;;;;4.20;1.77;;;14.20;73.80;;;;;;2081498;28;20056;-84
2022/10/09 17:59:47;;;;;;;2.90;1.43;;;14.10;73.90;;;;;;2074883;28;20026;-89
2022/10/09 18:00:49;;;;;;;6.63;1.70;;;14.10;73.80;;;;;;2081238;28;20354;-88
2022/10/09 18:01:50;;;;;;;4.28;1.63;;;14.10;73.60;;;;;;2081060;28;20120;-89
2022/10/09 18:02:50;;;;;;;3.37;1.50;;;14.10;74.30;;;;;;2089651;28;20490;-90
2022/10/09 18:03:51;;;;;;;5.15;1.58;;;14.00;73.90;;;;;;2089716;28;20056;-87
2022/10/09 18:04:56;;;;;;;3.53;2.00;;;14.10;74.10;;;;;;2081031;28;20034;-87
2022/10/09 18:05:57;;;;;;;3.87;1.93;;;14.00;74.10;;;;;;2082434;28;20065;-89
2022/10/09 18:06:57;;;;;;;6.70;2.07;;;14.00;74.30;;;;;;2089582;28;20262;-89
2022/10/09 18:07:58;;;;;;;4.80;1.40;;;14.00;74.30;;;;;;2080996;28;20029;-90
2022/10/09 18:09:00;;;;;;;5.27;1.73;;;14.00;74.20;;;;;;2081295;28;20095;-85
2022/10/09 18:10:00;;;;;;;4.93;1.42;;;14.00;74.20;;;;;;2089461;28;20301;-89
2022/10/09 18:11:06;;;;;;;3.90;1.97;;;14.00;74.20;;;;;;2089520;28;20037;-86
2022/10/09 18:12:08;;;;;;;5.83;1.93;;;14.00;74.40;;;;;;2082757;28;20408;-84
2022/10/09 18:13:10;;;;;;;4.47;1.90;;;14.00;74.50;;;;;;2081358;28;20328;-89
2022/10/09 18:14:10;;;;;;;;;;;14.00;74.20;;;;;;2082022;28;20052;-88
2022/10/09 18:15:11;;;;;;;4.87;1.90;;;14.00;74.20;;;;;;2080515;28;19909;-90
2022/10/09 18:16:21;;;;;;;2.80;1.60;;;13.90;74.30;;;;;;2089820;28;20025;-88
2022/10/09 18:17:22;;;;;;;4.77;1.60;;;13.90;74.50;;;;;;2090641;28;20075;-89
2022/10/09 18:18:23;;;;;;;6.63;2.07;;;13.90;74.40;;;;;;2089475;28;20267;-85
2022/10/09 18:19:23;;;;;;;3.37;1.70;;;13.90;74.30;;;;;;2081150;28;20060;-87
2022/10/09 18:20:25;;;;;;;4.93;1.50;;;13.90;74.50;;;;;;2081293;28;20452;-89
2022/10/09 18:21:26;;;;;;;4.90;1.73;;;13.90;74.50;;;;;;2088460;28;20420;-87
2022/10/09 18:22:26;;;;;;;4.47;1.47;;;13.90;74.50;;;;;;2084881;28;20033;-87
2022/10/09 18:23:27;;;;;;;4.43;1.63;;;13.90;74.40;;;;;;2085632;28;20041;-90
2022/10/09 18:24:28;;;;;;;4.68;1.60;;;13.90;74.50;;;;;;2097680;28;20063;-88
2022/10/09 18:25:29;;;;;;;7.53;1.57;;;13.90;74.40;;;;;;2097713;28;20025;-88
2022/10/09 18:26:30;;;;;;;3.15;1.38;;;13.90;74.30;;;;;;2089593;28;20055;-88
2022/10/09 18:27:31;;;;;;;3.97;1.70;;;13.90;74.60;;;;;;2089568;28;20516;-88
2022/10/09 18:28:32;;;;;;;4.87;1.40;;;13.90;74.50;;;;;;2088512;28;20025;-86
2022/10/09 18:29:32;;;;;;;3.60;1.60;;;13.90;74.50;;;;;;2080960;28;20714;-86
2022/10/09 18:30:36;;;;;;;4.45;1.70;;;13.90;74.80;;;;;;2089279;28;20029;-90
2022/10/09 18:31:37;;;;;;;4.27;1.80;;;13.90;74.50;;;;;;2089557;28;20452;-89
2022/10/09 18:32:38;;;;;;;9.17;1.87;;;13.90;74.70;;;;;;2093539;28;20313;-89
2022/10/09 18:33:40;;;;;;;4.13;1.50;;;13.90;75.10;;;;;;2089403;28;20053;-89
2022/10/09 18:34:40;;;;;;;6.75;2.10;;;13.90;75.00;;;;;;2080521;28;20059;-87
2022/10/09 18:35:41;;;;;;;2.53;1.65;;;13.90;74.70;;;;;;2089236;28;20053;-86
2022/10/09 18:36:42;;;;;;;7.37;1.60;;;13.80;74.50;;;;;;2093899;28;20033;-88
2022/10/09 18:37:43;;;;;;;4.07;2.07;;;13.90;74.70;;;;;;2089236;28;20029;-86
2022/10/09 18:38:48;;;;;;;5.10;2.10;;;13.90;74.80;;;;;;2097400;28;20079;-90
2022/10/09 18:39:49;;;;;;;6.03;1.87;;;13.90;74.80;;;;;;2097680;28;20032;-87
2022/10/09 18:40:50;;;;;;;5.87;2.20;;;13.90;75.30;;;;;;2087693;28;20289;-87
2022/10/09 18:41:52;;;;;;;5.83;2.60;;;13.90;75.50;;;;;;2080456;28;20680;-89
2022/10/09 18:42:53;;;;;;;7.67;2.40;;;13.90;75.50;;;;;;2089475;28;20064;-89
2022/10/09 18:43:58;;;;;;;6.00;2.40;;;13.90;75.40;;;;;;2081476;28;20275;-86
2022/10/09 18:45:00;;;;;;;5.50;2.30;;;13.90;75.40;;;;;;2082552;28;20176;-88
2022/10/09 18:46:01;;;;;;;6.93;2.50;;;13.80;75.60;;;;;;2085705;28;20278;-87
2022/10/09 18:47:03;;;;;;;6.13;2.70;;;13.90;75.80;;;;;;2081302;28;20037;-88
2022/10/09 18:48:06;;;;;;;4.77;2.30;;;13.90;75.70;;;;;;2091923;28;20080;-88
2022/10/09 18:49:10;;;;;;;5.53;2.20;;;13.80;75.90;;;;;;2090056;28;20262;-87
2022/10/09 18:50:12;;;;;;;7.67;2.63;;;13.90;76.10;;;;;;2092013;28;20285;-87
2022/10/09 18:51:19;;;;;;;7.15;2.35;;;13.90;76.20;;;;;;2089465;28;20258;-89
2022/10/09 18:52:20;;;;;;;13.20;2.60;;;13.90;76.00;;;;;;2090066;28;20093;-87
2022/10/09 18:53:21;;;;;;;6.47;2.30;;;13.90;75.90;;;;;;2081491;28;20256;-89
2022/10/09 18:54:25;;;;;;;6.53;2.67;;;13.80;76.00;;;;;;2080471;28;20085;-91
2022/10/09 18:55:26;;;;;;;6.07;2.33;;;13.80;76.00;;;;;;2081921;28;20025;-89
2022/10/09 18:56:30;;;;;;;4.17;2.20;;;13.80;75.90;;;;;;2073200;28;20278;-87
2022/10/09 18:57:32;;;;;;;7.87;2.50;;;13.80;76.10;;;;;;2082456;28;20026;-89
2022/10/09 18:58:33;;;;;;;4.88;2.63;;;13.80;76.20;;;;;;2097112;28;20249;-86
2022/10/09 18:59:36;;;;;;;7.55;2.70;;;13.80;76.30;;;;;;2088699;28;20021;-86
2022/10/09 19:00:41;;;;;;;6.23;2.20;;;13.80;76.40;;;;;;2089266;28;20029;-92
2022/10/09 19:01:42;;;;;;;6.30;1.70;;;13.80;76.30;;;;;;2075809;28;20287;-90
2022/10/09 19:02:43;;;;;;;5.97;2.00;;;13.80;76.00;;;;;;2083783;28;20263;-89
2022/10/09 19:03:43;;;;;;;8.07;2.20;;;13.80;75.70;;;;;;2092213;28;20085;-91
2022/10/09 19:04:44;;;;;;;5.30;1.97;;;13.80;75.90;;;;;;2092295;28;20084;-90
2022/10/09 19:05:45;;;;;;;5.37;1.80;;;13.90;75.90;;;;;;2075576;28;20493;-92
2022/10/09 19:06:46;;;;;;;5.43;2.23;;;13.80;76.10;;;;;;2089254;28;20501;-91
2022/10/09 19:07:47;;;;;;;6.93;2.00;;;13.80;75.90;;;;;;2083195;28;20075;-91
2022/10/09 19:08:49;;;;;;;4.40;2.00;;;13.80;75.90;;;;;;2083885;28;20029;-89
2022/10/09 19:09:49;;;;;;;;;;;13.80;75.80;;;;;;2084038;28;20041;-88
2022/10/09 19:10:51;;;;;;;3.07;1.77;;;13.80;75.80;;;;;;2075553;28;19910;-91
2022/10/09 19:11:52;;;;;;;4.32;1.90;;;13.70;75.60;;;;;;2076111;28;20109;-91
2022/10/09 19:12:53;;;;;;;7.50;2.40;;;13.80;75.80;;;;;;2083940;28;20115;-91
2022/10/09 19:13:58;;;;;;;4.63;2.08;;;13.80;75.90;;;;;;2092138;28;20072;-90
2022/10/09 19:14:59;;;;;;;6.10;2.60;;;13.80;75.70;;;;;;2083484;28;20475;-91
2022/10/09 19:16:04;;;;;;;4.40;2.20;;;13.80;76.80;;;;;;2075380;28;20263;-88
2022/10/09 19:17:06;;;;;;;8.30;3.00;;;13.70;76.00;;;;;;2076680;28;20125;-89
2022/10/09 19:18:07;;;;;;;7.22;2.80;;;13.70;75.80;;;;;;2075968;28;20625;-85
2022/10/09 19:19:07;;;;;;;11.37;3.50;;;13.70;75.70;;;;;;2083545;28;20026;-86
2022/10/09 19:20:08;;;;;;;11.80;3.77;;;13.80;75.70;;;;;;2091454;28;20044;-88
2022/10/09 19:21:13;;;;;;;10.48;3.97;;;13.70;75.80;;;;;;2082959;28;20097;-87
2022/10/09 19:22:15;;;;;;;13.13;4.83;;;13.70;75.80;;;;;;2093324;28;20431;-85
2022/10/09 19:23:16;;;;;;;11.45;4.20;;;13.70;75.80;;;;;;2092343;28;20651;-87
2022/10/09 19:24:17;;;;;;;15.00;4.78;;;13.70;75.90;;;;;;2075571;28;20184;-85
2022/10/09 19:25:19;;;;;;;12.43;5.20;;;13.70;76.00;;;;;;2075541;28;20375;-86
2022/10/09 19:26:20;;;;;;;12.07;4.30;;;13.70;76.10;;;;;;2073407;28;20475;-87
2022/10/09 19:27:21;;;;;;;11.18;4.68;;;13.70;76.20;;;;;;2083546;28;20368;-86
2022/10/09 19:28:24;;;;;;;9.67;4.30;;;13.70;76.40;;;;;;2082967;28;20025;-86
2022/10/09 19:29:28;;;;;;;8.63;3.53;;;13.70;76.50;;;;;;2084008;28;20029;-88
2022/10/09 19:30:29;;;;;;;7.97;3.00;;;13.70;76.70;;;;;;2076635;28;20271;-87
2022/10/09 19:31:31;;;;;;;8.03;3.50;;;13.70;76.80;;;;;;2075395;28;20261;-87
2022/10/09 19:32:31;;;;;;;4.85;2.53;;;13.70;76.70;;;;;;2083799;28;20025;-87
2022/10/09 19:33:33;;;;;;;6.72;2.78;;;13.70;76.80;;;;;;2090520;28;20025;-86
2022/10/09 19:34:34;;;;;;;7.93;2.83;;;13.70;77.00;;;;;;2083662;28;20045;-86
2022/10/09 19:35:42;;;;;;;9.02;2.33;;;13.70;77.10;;;;;;2067709;28;20105;-85
2022/10/09 19:36:47;;;;;;;9.17;2.77;;;13.80;77.20;;;;;;2083962;28;20049;-86
2022/10/09 19:37:48;;;;;;;8.33;2.70;;;13.70;77.10;;;;;;2086641;28;20274;-86
2022/10/09 19:38:49;;;;;;;6.00;2.13;;;13.80;77.30;;;;;;2091745;28;20740;-86
2022/10/09 19:39:50;;;;;;;7.45;2.17;;;13.80;77.40;;;;;;2087717;28;20033;-85
2022/10/09 19:40:51;;;;;;;5.13;2.10;;;13.80;77.60;;;;;;2083432;28;20033;-85
2022/10/09 19:41:51;;;;;;;5.90;1.93;;;13.80;77.50;;;;;;2088839;28;20036;-85
2022/10/09 19:42:52;;;;;;;3.80;1.60;;;13.70;77.30;;;;;;2090807;28;20040;-86
2022/10/09 19:43:53;;;;;;;5.47;1.97;;;13.80;77.70;;;;;;2075140;28;20433;-87
2022/10/09 19:44:54;;;;;;;5.70;1.83;;;13.70;77.60;;;;;;2088739;28;20036;-87
2022/10/09 19:46:03;;;;;;;4.97;1.87;;;13.80;77.00;;;;;;2100294;28;20135;-85
2022/10/09 19:47:04;;;;;;;4.10;2.30;;;13.80;76.70;;;;;;2091438;28;20390;-88
2022/10/09 19:48:05;;;;;;;6.57;2.07;;;13.70;76.30;;;;;;2082350;28;20310;-85
2022/10/09 19:49:10;;;;;;;4.53;2.37;;;13.70;76.50;;;;;;2083963;28;20112;-88
2022/10/09 19:50:19;;;;;;;9.63;2.73;;;13.70;76.40;;;;;;2088972;28;20040;-86
2022/10/09 19:51:25;;;;;;;12.27;2.70;;;13.70;76.60;;;;;;2080488;28;20367;-85
2022/10/09 19:52:26;;;;;;;5.50;2.23;;;13.70;76.40;;;;;;2076434;28;20448;-87
2022/10/09 19:53:27;;;;;;;4.60;2.10;;;13.70;76.60;;;;;;2083279;28;20290;-85
2022/10/09 19:54:29;;;;;;;4.15;1.95;;;13.70;76.80;;;;;;2074342;28;20060;-85
2022/10/09 19:55:32;;;;;;;7.03;2.47;;;13.70;76.60;;;;;;2088255;28;20029;-86
2022/10/09 19:56:34;;;;;;;5.53;2.03;;;13.70;76.80;;;;;;2082928;28;20374;-88
2022/10/09 19:57:35;;;;;;;6.43;1.98;;;13.70;76.60;;;;;;2076334;28;20369;-86
2022/10/09 19:58:39;;;;;;;6.03;1.80;;;13.70;76.40;;;;;;2088097;28;20452;-87
2022/10/09 19:59:40;;;;;;;7.13;2.50;;;13.70;76.20;;;;;;2092308;28;20371;-86
2022/10/09 20:00:42;;;;;;;5.33;2.43;;;13.70;76.50;;;;;;2081253;28;20309;-86
2022/10/09 20:01:43;;;;;;;6.00;2.25;;;13.70;76.80;;;;;;2089359;28;20036;-85
2022/10/09 20:02:44;;;;;;;7.10;2.13;;;13.70;76.80;;;;;;2082597;28;20279;-86
2022/10/09 20:03:58;;;;;;;7.33;2.27;;;13.60;76.40;;;;;;2085998;28;20073;-87
2022/10/09 20:05:02;;;;;;;7.07;2.30;;;13.60;76.50;;;;;;2094812;28;20266;-87
2022/10/09 20:06:04;;;;;;;6.03;2.25;;;13.60;76.90;;;;;;2091558;28;20294;-85
2022/10/09 20:07:05;;;;;;;5.57;2.45;;;13.60;76.60;;;;;;2082759;28;20056;-86
2022/10/09 20:08:07;;;;;;;8.85;3.53;;;13.60;76.50;;;;;;2097271;28;20020;-86
2022/10/09 20:09:10;;;;;;;6.73;3.20;;;13.60;76.50;;;;;;2096409;28;20032;-87
2022/10/09 20:10:10;;;;;;;7.97;3.03;;;13.60;76.50;;;;;;2092764;28;20270;-87
2022/10/09 20:11:12;;;;;;;6.93;3.13;;;13.60;76.90;;;;;;2093986;28;20296;-87
2022/10/09 20:12:13;;;;;;;8.93;3.47;;;13.60;76.80;;;;;;2082294;28;20029;-86
2022/10/09 20:13:14;;;;;;;4.77;2.57;;;13.60;76.90;;;;;;2082379;28;20053;-87
2022/10/09 20:14:15;;;;;;;7.87;2.73;;;13.60;77.10;;;;;;2082575;28;20148;-85
2022/10/09 20:15:16;;;;;;;6.30;2.93;;;13.60;76.70;;;;;;2079457;28;20055;-87
2022/10/09 20:16:17;;;;;;;7.55;2.78;;;13.60;76.90;;;;;;2075432;28;20029;-86
2022/10/09 20:17:19;;;;;;;4.07;2.22;;;13.60;77.20;;;;;;2089896;28;20270;-87
2022/10/09 20:18:20;;;;;;;3.83;2.13;;;13.60;76.90;;;;;;2076782;28;20026;-87
2022/10/09 20:19:21;;;;;;;4.93;2.17;;;13.60;77.00;;;;;;2074589;28;20460;-86
2022/10/09 20:20:22;;;;;;;8.15;2.22;;;13.60;77.20;;;;;;2081589;28;20033;-85
2022/10/09 20:21:24;;;;;;;4.38;1.90;;;13.60;77.10;;;;;;2082609;28;20093;-87
2022/10/09 20:22:25;;;;;;;6.43;2.58;;;13.60;77.40;;;;;;2089948;28;20058;-84
2022/10/09 20:23:25;;;;;;;6.97;2.10;;;13.60;77.50;;;;;;2083251;28;20041;-88
2022/10/09 20:24:26;;;;;;;5.20;2.65;;;13.60;77.30;;;;;;2078072;28;20030;-85
2022/10/09 20:25:27;;;;;;;3.77;1.90;;;13.60;77.10;;;;;;2085091;28;20254;-85
2022/10/09 20:26:30;;;;;;;5.72;2.00;;;13.60;77.00;;;;;;2075096;28;20087;-87
2022/10/09 20:27:31;;;;;;;4.37;1.60;;;13.60;77.10;;;;;;2081709;28;20025;-87
2022/10/09 20:28:34;;;;;;;4.70;1.60;;;13.60;77.10;;;;;;2092556;28;20262;-87
2022/10/09 20:29:34;;;;;;;5.80;1.90;;;13.60;77.30;;;;;;2082880;28;20021;-87
2022/10/09 20:30:35;;;;;;;4.93;1.93;;;13.60;77.40;;;;;;2077781;28;20657;-85
2022/10/09 20:31:36;;;;;;;5.03;1.93;;;13.60;77.50;;;;;;2083181;28;20057;-87
2022/10/09 20:32:37;;;;;;;6.40;2.13;;;13.60;77.50;;;;;;2077087;28;20138;-86
2022/10/09 20:33:40;;;;;;;6.53;1.97;;;13.60;77.50;;;;;;2075949;28;20065;-86
2022/10/09 20:34:41;;;;;;;4.00;1.83;;;13.60;77.70;;;;;;2074349;28;20036;-87
2022/10/09 20:35:42;;;;;;;7.40;2.40;;;13.60;77.80;;;;;;2070778;28;20337;-86
2022/10/09 20:36:43;;;;;;;4.97;1.93;;;13.60;77.80;;;;;;2082731;28;20026;-86
2022/10/09 20:37:44;;;;;;;4.67;2.13;;;13.60;77.90;;;;;;2082695;28;20026;-85
2022/10/09 20:38:47;;;;;;;7.37;2.27;;;13.60;77.20;;;;;;2091239;28;20033;-86
2022/10/09 20:39:48;;;;;;;5.30;2.07;;;13.60;77.30;;;;;;2099785;28;20269;-85
2022/10/09 20:40:49;;;;;;;5.70;2.07;;;13.60;77.70;;;;;;2091080;28;20608;-86
2022/10/09 20:41:50;;;;;;;3.53;1.90;;;13.60;77.80;;;;;;2090240;28;20037;-86
2022/10/09 20:42:51;;;;;;;3.88;1.70;;;13.60;77.90;;;;;;2090343;28;20029;-87
2022/10/09 20:43:54;;;;;;;3.95;1.80;;;13.60;78.10;;;;;;2076713;28;20030;-86
2022/10/09 20:44:55;;;;;;;4.93;1.80;;;13.60;78.20;;;;;;2083095;28;20121;-87
2022/10/09 20:45:56;;;;;;;4.60;1.90;;;13.60;78.30;;;;;;2083176;28;20620;-85
2022/10/09 20:46:57;;;;;;;6.03;2.03;;;13.60;78.30;;;;;;2091171;28;20266;-86
2022/10/09 20:47:58;;;;;;;6.83;1.73;;;13.60;78.20;;;;;;2088500;28;20449;-88
2022/10/09 20:49:02;;;;;;;6.00;2.70;;;13.70;78.10;;;;;;2091380;28;20262;-86
2022/10/09 20:50:03;;;;;;;4.00;1.87;;;13.70;78.20;;;;;;2077584;28;20042;-87
2022/10/09 20:51:05;;;;;;;3.90;1.85;;;13.70;79.00;;;;;;2074950;28;20761;-85
2022/10/09 20:52:05;;;;;;;7.50;2.20;;;13.70;78.40;;;;;;2074653;28;20131;-86
2022/10/09 20:53:10;;;;;;;6.45;1.80;;;13.70;78.30;;;;;;2068180;28;20509;-87
2022/10/09 20:54:15;;;;;;;4.47;2.20;;;13.70;77.80;;;;;;2069810;28;20026;-86
2022/10/09 20:55:16;;;;;;;4.90;2.10;;;13.70;78.00;;;;;;2067470;28;20266;-86
2022/10/09 20:56:17;;;;;;;4.03;1.83;;;13.60;78.30;;;;;;2084849;28;20653;-85
2022/10/09 20:57:18;;;;;;;9.33;2.10;;;13.70;78.60;;;;;;2079223;28;20521;-86
2022/10/09 20:58:19;;;;;;;6.40;2.72;;;13.70;78.70;;;;;;2090153;28;20029;-86
2022/10/09 20:59:19;;;;;;;9.67;2.40;;;13.70;78.70;;;;;;2079446;28;20103;-86
2022/10/09 21:00:20;;;;;;;5.77;2.23;;;13.70;78.80;;;;;;2072022;28;20437;-87
2022/10/09 21:01:21;;;;;;;4.63;1.60;;;13.70;78.70;;;;;;2073905;28;20117;-86
2022/10/09 21:02:23;;;;;;;5.00;2.08;;;13.70;78.70;;;;;;2074129;28;20441;-86
2022/10/09 21:03:24;;;;;;;5.25;1.85;;;13.70;78.80;;;;;;2067409;28;20038;-86
2022/10/09 21:04:25;;;;;;;5.28;2.38;;;13.70;78.90;;;;;;2070375;28;20018;-86
2022/10/09 21:05:26;;;;;;;5.07;2.42;;;13.70;78.90;;;;;;2074632;28;20346;-86
2022/10/09 21:06:27;;;;;;;5.63;2.70;;;13.70;79.00;;;;;;2073792;28;20032;-85
2022/10/09 21:07:27;;;;;;;8.60;2.05;;;13.70;78.80;;;;;;2073446;28;20040;-87
2022/10/09 21:08:28;;;;;;;4.67;2.13;;;13.70;78.30;;;;;;2065523;28;20030;-83
2022/10/09 21:09:29;;;;;;;8.75;2.78;;;13.70;78.60;;;;;;2079786;28;20025;-86
2022/10/09 21:10:30;;;;;;;7.60;1.85;;;13.70;78.70;;;;;;2082671;28;20057;-83
2022/10/09 21:11:33;;;;;;;5.80;1.80;;;13.70;78.70;;;;;;2077508;28;20028;-87
2022/10/09 21:12:34;;;;;;;4.53;1.40;;;13.60;78.70;;;;;;2082598;28;20049;-86
2022/10/09 21:13:36;;;;;;;3.50;2.03;;;13.70;78.50;;;;;;2068026;28;20264;-85
2022/10/09 21:14:36;;;;;;;6.13;2.08;;;13.60;78.50;;;;;;2058663;28;20026;-83
2022/10/09 21:15:45;;;;;;;7.13;1.83;;;13.60;78.60;;;;;;2082686;28;20029;-83
2022/10/09 21:16:46;;;;;;;5.97;1.50;;;13.70;78.80;;;;;;2080728;28;20029;-85
2022/10/09 21:17:46;;;;;;;3.93;1.47;;;13.60;78.20;;;;;;2068395;28;20268;-87
2022/10/09 21:18:51;;;;;;;9.37;1.77;;;13.60;78.20;;;;;;2082467;28;20025;-86
2022/10/09 21:19:54;;;;;;;4.33;1.50;;;13.70;78.20;;;;;;2074909;28;20087;-87
2022/10/09 21:20:54;;;;;;;4.80;1.23;;;13.70;78.50;;;;;;2080975;28;20309;-82
2022/10/09 21:21:55;;;;;;;6.27;1.60;;;13.60;78.50;;;;;;2072521;28;20702;-84
2022/10/09 21:22:56;;;;;;;2.47;1.20;;;13.60;78.40;;;;;;2082370;28;20044;-84
2022/10/09 21:23:58;;;;;;;4.20;1.20;;;13.60;78.50;;;;;;2090596;28;20351;-85
2022/10/09 21:24:59;;;;;;;3.53;1.17;;;13.70;78.50;;;;;;2081758;28;20032;-84
2022/10/09 21:26:00;;;;;;;5.63;1.70;;;13.70;78.60;;;;;;2066060;28;20280;-82
2022/10/09 21:27:01;;;;;;;4.72;1.70;;;13.70;78.40;;;;;;2066088;28;20030;-84
2022/10/09 21:28:04;;;;;;;5.03;1.37;;;13.70;78.40;;;;;;2073800;28;20022;-86
2022/10/09 21:29:05;;;;;;;6.67;1.70;;;13.60;78.30;;;;;;2082565;28;20263;-85
2022/10/09 21:30:07;;;;;;;2.15;1.00;;;13.70;79.30;;;;;;2079817;28;20279;-83
2022/10/09 21:31:14;;;;;;;5.95;1.40;;;13.60;78.20;;;;;;2074317;28;20026;-85
2022/10/09 21:32:14;;;;;;;2.93;1.40;;;13.70;78.30;;;;;;2077360;28;20067;-85
2022/10/09 21:33:15;;;;;;;6.33;1.53;;;13.60;78.30;;;;;;2067381;28;20847;-84
2022/10/09 21:34:16;;;;;;;5.43;1.17;;;13.70;78.50;;;;;;2073438;28;20026;-85
2022/10/09 21:35:17;;;;;;;4.50;1.40;;;13.70;78.50;;;;;;2074163;28;20088;-85
2022/10/09 21:36:45;;;;;;;3.53;1.27;;;13.70;78.30;;;;;;2074325;28;20026;-85
2022/10/09 21:37:47;;;;;;;2.90;1.10;;;13.70;78.40;;;;;;2077730;28;20029;-83
2022/10/09 21:38:48;;;;;;;7.00;1.48;;;13.70;78.30;;;;;;2082275;28;20322;-83
2022/10/09 21:39:49;;;;;;;3.80;1.38;;;13.60;78.50;;;;;;2074379;28;20096;-85
2022/10/09 21:40:50;;;;;;;2.97;1.23;;;13.70;78.70;;;;;;2074563;28;20535;-82
2022/10/09 21:41:51;;;;;;;6.53;1.60;;;13.70;78.70;;;;;;2081607;28;20029;-85
2022/10/09 21:42:51;;;;;;;1.80;1.27;;;13.70;78.80;;;;;;2081281;28;20064;-83
2022/10/09 21:43:52;;;;;;;7.43;1.57;;;13.70;78.80;;;;;;2068741;28;20053;-86
2022/10/09 21:44:53;;;;;;;4.73;1.30;;;13.70;78.60;;;;;;2066445;28;20457;-85
2022/10/09 21:45:53;;;;;;;2.77;1.03;;;13.70;78.60;;;;;;2080056;28;20032;-85
2022/10/09 21:46:55;;;;;;;5.70;1.30;;;13.70;78.60;;;;;;2082414;28;20033;-87
2022/10/09 21:47:55;;;;;;;4.80;1.50;;;13.70;78.60;;;;;;2073006;28;20081;-84
2022/10/09 21:48:57;;;;;;;4.43;1.50;;;13.70;78.80;;;;;;2074422;28;20263;-83
2022/10/09 21:49:57;;;;;;;4.90;1.50;;;13.70;78.70;;;;;;2087178;28;20083;-86
2022/10/09 21:50:58;;;;;;;3.60;1.65;;;13.70;78.80;;;;;;2097121;28;20032;-85
2022/10/09 21:51:59;;;;;;;8.07;2.13;;;13.70;78.90;;;;;;2091427;28;20025;-85
2022/10/09 21:53:01;;;;;;;5.47;1.40;;;13.70;78.80;;;;;;2082258;28;20092;-82
2022/10/09 21:54:02;;;;;;;4.55;1.40;;;13.70;78.80;;;;;;2073960;28;20424;-87
2022/10/09 21:55:03;;;;;;;3.97;1.27;;;13.70;78.80;;;;;;2075488;28;20030;-84
2022/10/09 21:56:04;;;;;;;3.58;1.50;;;13.70;78.90;;;;;;2088781;28;20025;-86
2022/10/09 21:57:05;;;;;;;4.65;1.20;;;13.70;78.90;;;;;;2090645;28;20028;-82
2022/10/09 21:58:06;;;;;;;2.97;1.27;;;13.70;78.90;;;;;;2080269;28;20116;-85
2022/10/09 21:59:07;;;;;;;5.40;1.40;;;13.70;79.00;;;;;;2082280;28;20017;-85
2022/10/09 22:00:10;;;;;;;4.13;1.23;;;13.70;79.10;;;;;;2082083;28;20502;-86
2022/10/09 22:01:10;;;;;;;6.70;1.47;;;13.70;79.00;;;;;;2081751;28;20057;-84
2022/10/09 22:02:11;;;;;;;5.97;1.70;;;13.70;79.10;;;;;;2079139;28;20274;-85
2022/10/09 22:03:12;;;;;;;3.80;1.40;;;13.70;79.10;;;;;;2070589;28;20357;-84
2022/10/09 22:04:13;;;;;;;5.00;1.30;;;13.70;79.10;;;;;;2095475;28;20017;-85
2022/10/09 22:05:14;;;;;;;5.57;1.57;;;13.70;79.10;;;;;;2090523;28;20040;-86
2022/10/09 22:06:15;;;;;;;4.43;1.30;;;13.70;79.10;;;;;;2074140;28;20036;-87
2022/10/09 22:07:17;;;;;;;6.10;1.17;;;13.70;79.10;;;;;;2082056;28;20084;-84
2022/10/09 22:08:18;;;;;;;6.43;1.45;;;13.70;79.10;;;;;;2081538;28;20544;-87
2022/10/09 22:09:19;;;;;;;4.22;1.35;;;13.70;79.10;;;;;;2087078;28;20494;-83
2022/10/09 22:10:20;;;;;;;7.63;1.47;;;13.70;79.20;;;;;;2088612;28;20281;-86
2022/10/09 22:11:20;;;;;;;4.40;2.13;;;13.70;79.30;;;;;;2094318;28;20412;-85
2022/10/09 22:12:21;;;;;;;5.57;1.60;;;13.70;79.20;;;;;;2090312;28;20093;-82
2022/10/09 22:13:22;;;;;;;4.55;1.48;;;13.70;79.20;;;;;;2082194;28;20083;-82
2022/10/09 22:14:23;;;;;;;3.10;1.40;;;13.70;79.30;;;;;;2073374;28;20038;-86
2022/10/09 22:15:23;;;;;;;4.33;1.60;;;13.70;79.20;;;;;;2082182;28;20030;-84
2022/10/09 22:16:24;;;;;;;4.77;1.57;;;13.70;79.20;;;;;;2092188;28;20032;-83
2022/10/09 22:17:25;;;;;;;2.83;1.63;;;13.70;79.20;;;;;;2087941;28;20021;-85
2022/10/09 22:18:26;;;;;;;2.57;1.53;;;13.70;79.20;;;;;;2082290;28;20380;-86
2022/10/09 22:19:26;;;;;;;3.07;1.50;;;13.70;79.20;;;;;;2082419;28;20029;-84
2022/10/09 22:20:27;;;;;;;5.20;1.70;;;13.70;79.30;;;;;;2096762;28;20032;-83
2022/10/09 22:21:28;;;;;;;4.83;1.30;;;13.70;79.40;;;;;;2074849;28;20500;-83
2022/10/09 22:22:29;;;;;;;4.97;1.47;;;13.70;79.40;;;;;;2082405;28;20063;-85
2022/10/09 22:23:30;;;;;;;4.60;1.60;;;13.70;79.40;;;;;;2082433;28;20025;-86
2022/10/09 22:24:31;;;;;;;4.38;1.52;;;13.70;79.50;;;;;;2082126;28;20067;-84
2022/10/09 22:25:32;;;;;;;4.10;1.40;;;13.70;79.40;;;;;;2082170;28;20029;-84
2022/10/09 22:26:32;;;;;;;6.20;1.50;;;13.70;79.60;;;;;;2083850;28;20471;-83
2022/10/09 22:27:33;;;;;;;5.53;1.53;;;13.70;79.50;;;;;;2098232;28;20025;-83
2022/10/09 22:28:34;;;;;;;5.30;1.47;;;13.70;79.70;;;;;;2082268;28;20445;-83
2022/10/09 22:29:37;;;;;;;6.33;1.30;;;13.70;79.80;;;;;;2074343;28;20033;-83
2022/10/09 22:30:37;;;;;;;2.87;1.50;;;13.70;79.80;;;;;;2090491;28;20515;-84
2022/10/09 22:31:38;;;;;;;4.73;1.20;;;13.70;79.80;;;;;;2075071;28;20279;-85
2022/10/09 22:32:39;;;;;;;4.50;1.43;;;13.70;79.80;;;;;;2090283;28;20049;-84
2022/10/09 22:33:40;;;;;;;7.70;1.87;;;13.70;79.70;;;;;;2090647;28;20025;-83
2022/10/09 22:34:41;;;;;;;4.63;1.88;;;13.70;79.70;;;;;;2074950;28;20026;-85
2022/10/09 22:35:44;;;;;;;5.90;1.70;;;13.70;79.80;;;;;;2081385;28;20472;-85
2022/10/09 22:36:45;;;;;;;6.33;1.80;;;13.70;79.70;;;;;;2082943;28;20420;-84
2022/10/09 22:37:46;;;;;;;3.90;1.67;;;13.70;79.90;;;;;;2095727;28;20273;-82
2022/10/09 22:38:47;;;;;;;5.40;1.40;;;13.70;79.80;;;;;;2091935;28;20059;-83
2022/10/09 22:39:48;;;;;;;4.40;1.63;;;13.70;79.90;;;;;;2092076;28;20032;-84
2022/10/09 22:40:49;;;;;;;4.03;1.40;;;13.70;79.90;;;;;;2091553;28;20053;-83
2022/10/09 22:41:49;;;;;;;3.33;1.17;;;13.70;79.90;;;;;;2091196;28;20419;-84
2022/10/09 22:42:50;;;;;;;8.00;1.97;;;13.70;79.90;;;;;;2091483;28;20480;-84
2022/10/09 22:43:53;;;;;;;7.10;1.53;;;13.80;80.80;;;;;;2088217;28;20025;-85
2022/10/09 22:44:54;;;;;;;4.10;1.40;;;13.70;80.00;;;;;;2091700;28;20025;-87
2022/10/09 22:45:55;;;;;;;4.90;1.73;;;13.70;80.00;;;;;;2091567;28;20294;-84
2022/10/09 22:46:56;;;;;;;6.33;1.43;;;13.80;80.10;;;;;;2090856;28;20017;-84
2022/10/09 22:48:02;;;;;;;4.77;1.50;;;13.70;80.00;;;;;;2085057;28;20364;-82
2022/10/09 22:49:04;;;;;;;6.33;1.50;;;13.70;80.00;;;;;;2091265;28;20033;-89
2022/10/09 22:50:07;;;;;;;3.47;1.30;;;13.70;80.10;;;;;;2083572;28;20322;-82
2022/10/09 22:51:11;;;;;;;5.07;1.60;;;13.70;80.10;;;;;;2085762;28;20317;-84
2022/10/09 22:52:12;;;;;;;6.83;1.43;;;13.70;80.20;;;;;;2091955;28;20321;-84
2022/10/09 22:53:13;;;;;;;5.03;2.08;;;13.80;80.20;;;;;;2079913;28;20259;-84
2022/10/09 22:54:14;;;;;;;6.13;1.90;;;13.80;80.20;;;;;;2093162;28;20596;-85
2022/10/09 22:55:16;;;;;;;5.95;1.88;;;13.80;80.30;;;;;;2083857;28;20380;-86
2022/10/09 22:56:19;;;;;;;6.23;2.03;;;13.80;80.30;;;;;;2083582;28;20056;-84
2022/10/09 22:57:20;;;;;;;3.30;1.70;;;13.80;80.30;;;;;;2088955;28;20700;-87
2022/10/09 22:58:21;;;;;;;8.27;1.80;;;13.80;80.30;;;;;;2083850;28;20267;-88
2022/10/09 22:59:21;;;;;;;5.83;1.73;;;13.80;80.30;;;;;;2083544;28;20054;-84
2022/10/09 23:00:22;;;;;;;4.87;1.63;;;13.80;80.40;;;;;;2091966;28;20098;-84
2022/10/09 23:01:33;;;;;;;3.72;1.77;;;13.80;80.60;;;;;;2090932;28;20033;-82
2022/10/09 23:02:33;;;;;;;6.80;2.10;;;13.80;80.50;;;;;;2080795;28;20026;-84
2022/10/09 23:03:34;;;;;;;5.30;1.80;;;13.80;80.60;;;;;;2076568;28;20279;-85
2022/10/09 23:04:35;;;;;;;8.38;2.05;;;13.80;80.60;;;;;;2089772;28;20039;-84
2022/10/09 23:05:36;;;;;;;5.90;1.63;;;13.80;80.70;;;;;;2076232;28;20275;-83
2022/10/09 23:06:37;;;;;;;7.37;1.80;;;13.80;80.90;;;;;;2091273;28;20029;-83
2022/10/09 23:07:38;;;;;;;5.00;2.13;;;13.80;81.00;;;;;;2090955;28;20106;-86
2022/10/09 23:08:41;;;;;;;3.83;1.70;;;13.80;81.10;;;;;;2086866;28;20025;-83
2022/10/09 23:09:42;;;;;;;4.30;1.53;;;13.80;81.00;;;;;;2085161;28;20091;-87
2022/10/09 23:10:43;;;;;;;5.22;2.15;;;13.80;80.90;;;;;;2088362;28;20269;-87
2022/10/09 23:11:44;;;;;;;7.07;2.30;;;13.80;81.00;;;;;;2091874;28;20040;-84